Time;durP1;ratioP1;P1;durP2;ratioP2;P2;SDS_P1;SDS_P2;PMS_P1;PMS_P2;Temp;Humidity;BMP_temperature;BMP_pressure;BME280_temperature;BME280_humidity;BME280_pressure;Samples;Min_cycle;Max_cycle;Signal;HPM_P1;HPM_P2
2021/01/28 00:00:43;;;;;;;1.67;1.40;;;3.20;99.90;;;;;;5041262;28;20241;-79
2021/01/28 00:03:11;;;;;;;1.77;1.50;;;3.10;99.90;;;;;;5025584;28;20199;-78
2021/01/28 00:05:38;;;;;;;2.10;1.57;;;3.20;99.90;;;;;;5041600;28;20245;-79
2021/01/28 00:08:05;;;;;;;2.23;2.00;;;3.20;99.90;;;;;;5027039;28;20183;-78
2021/01/28 00:10:31;;;;;;;2.20;1.90;;;3.20;99.90;;;;;;5028022;28;20189;-79
2021/01/28 00:12:59;;;;;;;1.93;1.80;;;3.20;99.90;;;;;;5029866;28;20218;-80
2021/01/28 00:15:27;;;;;;;3.07;2.63;;;3.20;99.90;;;;;;5028627;28;20207;-79
2021/01/28 00:17:53;;;;;;;3.23;2.70;;;3.10;99.90;;;;;;5028868;28;20261;-78
2021/01/28 00:20:27;;;;;;;3.67;2.83;;;3.20;99.90;;;;;;5029319;28;20183;-79
2021/01/28 00:22:52;;;;;;;2.93;2.17;;;3.20;99.90;;;;;;5029698;28;20550;-79
2021/01/28 00:25:20;;;;;;;2.27;2.07;;;3.20;99.90;;;;;;5029170;28;20207;-79
2021/01/28 00:27:47;;;;;;;2.30;2.00;;;3.10;99.90;;;;;;5028899;28;20175;-77
2021/01/28 00:30:17;;;;;;;3.13;2.00;;;3.20;99.90;;;;;;5028183;28;20182;-78
2021/01/28 00:32:42;;;;;;;2.63;2.00;;;3.20;99.90;;;;;;5044796;28;20258;-78
2021/01/28 00:35:09;;;;;;;3.07;2.40;;;3.10;99.90;;;;;;5029325;28;20663;-78
2021/01/28 00:37:35;;;;;;;1.97;1.50;;;3.20;99.90;;;;;;5029424;28;20230;-78
2021/01/28 00:40:00;;;;;;;2.50;1.87;;;3.20;99.90;;;;;;5029277;28;20198;-78
2021/01/28 00:42:26;;;;;;;3.07;2.23;;;3.30;99.90;;;;;;5030428;28;20186;-79
2021/01/28 00:44:52;;;;;;;3.63;2.83;;;3.20;99.90;;;;;;5028774;28;20199;-77
2021/01/28 00:47:17;;;;;;;1.90;1.80;;;3.20;99.90;;;;;;5029743;28;20261;-78
2021/01/28 00:49:44;;;;;;;2.63;1.87;;;3.30;99.90;;;;;;5027654;28;20182;-79
2021/01/28 00:52:09;;;;;;;3.30;2.43;;;3.40;99.90;;;;;;5027822;28;20305;-79
2021/01/28 00:54:35;;;;;;;2.63;1.83;;;3.40;99.90;;;;;;5029912;28;20203;-78
2021/01/28 00:57:00;;;;;;;2.57;1.80;;;3.30;99.90;;;;;;5029102;28;20183;-80
2021/01/28 00:59:26;;;;;;;2.77;2.40;;;3.40;99.90;;;;;;5029179;28;20222;-80
2021/01/28 01:01:51;;;;;;;2.37;2.17;;;3.40;99.90;;;;;;5028565;28;20240;-79
2021/01/28 01:04:17;;;;;;;1.93;1.57;;;3.30;99.90;;;;;;5028689;28;20213;-78
2021/01/28 01:06:43;;;;;;;3.13;2.70;;;3.40;99.90;;;;;;5028489;28;20181;-80
2021/01/28 01:09:08;;;;;;;2.77;2.30;;;3.40;99.90;;;;;;5029328;28;20580;-78
2021/01/28 01:11:34;;;;;;;2.43;1.87;;;3.40;99.90;;;;;;5029132;28;20580;-78
2021/01/28 01:13:59;;;;;;;3.53;2.40;;;3.40;99.90;;;;;;5028066;28;20267;-79
2021/01/28 01:16:25;;;;;;;2.23;2.03;;;3.50;99.90;;;;;;5028125;28;20207;-79
2021/01/28 01:18:51;;;;;;;2.77;2.10;;;3.50;99.90;;;;;;5027579;28;20210;-78
2021/01/28 01:21:17;;;;;;;3.03;2.13;;;3.40;99.90;;;;;;5029426;28;20182;-79
2021/01/28 01:23:42;;;;;;;3.37;2.53;;;3.40;99.90;;;;;;5029132;28;20286;-79
2021/01/28 01:26:08;;;;;;;3.17;2.60;;;3.50;99.90;;;;;;5028069;28;20190;-80
2021/01/28 01:28:34;;;;;;;2.73;2.20;;;3.50;99.90;;;;;;5029572;28;20191;-79
2021/01/28 01:30:59;;;;;;;2.93;2.47;;;3.50;99.90;;;;;;5027909;28;20190;-80
2021/01/28 01:33:25;;;;;;;3.67;2.53;;;3.50;99.90;;;;;;5027921;28;20601;-80
2021/01/28 01:35:51;;;;;;;3.27;2.53;;;3.50;99.90;;;;;;5028900;28;20241;-78
2021/01/28 01:38:17;;;;;;;3.23;2.57;;;3.60;99.90;;;;;;5028820;28;20260;-80
2021/01/28 01:40:52;;;;;;;4.10;2.93;;;3.50;99.90;;;;;;5029127;28;20193;-79
2021/01/28 01:43:18;;;;;;;2.60;2.40;;;3.60;99.90;;;;;;5028675;28;20237;-80
2021/01/28 01:45:46;;;;;;;2.50;1.93;;;3.50;99.90;;;;;;5028625;28;20238;-79
2021/01/28 01:48:20;;;;;;;3.53;2.63;;;3.60;99.90;;;;;;5048356;28;20654;-79
2021/01/28 01:51:09;;;;;;;3.10;2.10;;;3.60;99.90;;;;;;5032009;28;21209;-78
2021/01/28 01:53:41;;;;;;;3.87;2.50;;;3.70;99.90;;;;;;5024433;28;20199;-79
2021/01/28 01:56:31;;;;;;;4.63;3.30;;;3.60;99.90;;;;;;5047300;28;20329;-78
2021/01/28 01:59:11;;;;;;;4.17;2.80;;;3.60;99.90;;;;;;5032571;28;20210;-80
2021/01/28 02:01:43;;;;;;;3.43;2.43;;;3.60;99.90;;;;;;5032616;28;20226;-80
2021/01/28 02:04:09;;;;;;;3.50;2.93;;;3.60;99.90;;;;;;5032951;28;20207;-80
2021/01/28 02:06:54;;;;;;;2.93;2.43;;;3.70;99.90;;;;;;5032112;28;20321;-82
2021/01/28 02:09:20;;;;;;;4.23;2.73;;;3.70;99.90;;;;;;5032219;28;20226;-78
2021/01/28 02:11:47;;;;;;;3.20;2.70;;;3.60;99.90;;;;;;5032293;28;20190;-81
2021/01/28 02:14:15;;;;;;;3.20;2.73;;;3.50;99.90;;;;;;5047522;28;20245;-79
2021/01/28 02:17:00;;;;;;;2.33;2.10;;;3.60;99.90;;;;;;5030491;28;20194;-79
2021/01/28 02:19:41;;;;;;;4.60;3.03;;;3.70;99.90;;;;;;5030968;28;20210;-79
2021/01/28 02:22:07;;;;;;;1.97;1.70;;;3.70;99.90;;;;;;5029763;28;20958;-81
2021/01/28 02:24:52;;;;;;;2.23;1.90;;;3.70;99.90;;;;;;5031302;28;20225;-79
2021/01/28 02:27:18;;;;;;;2.93;2.17;;;3.70;99.90;;;;;;5031352;28;20182;-79
2021/01/28 02:29:46;;;;;;;2.23;1.67;;;3.70;99.90;;;;;;5030201;28;20259;-81
2021/01/28 02:32:12;;;;;;;2.73;2.23;;;3.70;99.90;;;;;;5031593;28;20241;-82
2021/01/28 02:34:38;;;;;;;6.10;2.10;;;3.80;99.90;;;;;;5031224;28;20289;-82
2021/01/28 02:37:19;;;;;;;3.07;2.27;;;3.70;99.90;;;;;;5029927;28;20211;-79
2021/01/28 02:39:45;;;;;;;4.20;2.53;;;3.80;99.90;;;;;;5030412;28;20267;-78
2021/01/28 02:42:19;;;;;;;3.07;2.10;;;3.70;99.90;;;;;;5031610;28;20277;-80
2021/01/28 02:44:45;;;;;;;3.27;2.77;;;3.70;99.90;;;;;;5031693;28;20202;-80
2021/01/28 02:47:12;;;;;;;2.93;2.03;;;3.70;99.90;;;;;;5030318;28;20247;-78
2021/01/28 02:49:37;;;;;;;3.07;2.40;;;3.60;99.90;;;;;;5031396;28;20715;-79
2021/01/28 02:52:03;;;;;;;2.77;2.00;;;3.70;99.90;;;;;;5031297;28;20186;-79
2021/01/28 02:54:29;;;;;;;2.50;1.90;;;3.60;99.90;;;;;;5030953;28;20215;-79
2021/01/28 02:56:54;;;;;;;2.67;2.30;;;3.70;99.90;;;;;;5029393;28;20279;-81
2021/01/28 02:59:20;;;;;;;2.73;1.87;;;3.60;99.90;;;;;;5028962;28;20217;-80
2021/01/28 03:01:46;;;;;;;2.63;2.07;;;3.60;99.90;;;;;;5030909;28;20194;-79
2021/01/28 03:04:12;;;;;;;3.63;3.00;;;3.70;99.90;;;;;;5032154;28;20667;-81
2021/01/28 03:06:38;;;;;;;3.80;2.80;;;3.60;99.90;;;;;;5030780;28;20266;-78
2021/01/28 03:09:06;;;;;;;3.20;2.90;;;3.60;99.90;;;;;;5031214;28;20214;-78
2021/01/28 03:11:32;;;;;;;2.70;2.33;;;3.60;99.90;;;;;;5031476;28;20321;-78
2021/01/28 03:13:58;;;;;;;2.47;2.17;;;3.70;99.90;;;;;;5030397;28;20257;-80
2021/01/28 03:16:24;;;;;;;3.07;2.30;;;3.60;99.90;;;;;;5029678;28;20197;-80
2021/01/28 03:18:49;;;;;;;2.53;2.33;;;3.60;99.90;;;;;;5029948;28;20207;-79
2021/01/28 03:21:15;;;;;;;2.37;1.93;;;3.60;99.90;;;;;;5031120;28;20672;-77
2021/01/28 03:23:40;;;;;;;2.53;2.30;;;3.60;99.90;;;;;;5031269;28;20505;-79
2021/01/28 03:26:06;;;;;;;3.23;2.40;;;3.60;99.90;;;;;;5031117;28;20214;-78
2021/01/28 03:28:32;;;;;;;2.37;1.73;;;3.70;99.90;;;;;;5031577;28;20198;-79
2021/01/28 03:30:57;;;;;;;2.87;2.03;;;3.60;99.90;;;;;;5030999;28;20195;-79
2021/01/28 03:33:23;;;;;;;2.77;2.30;;;3.60;99.90;;;;;;5031539;28;20644;-79
2021/01/28 03:35:50;;;;;;;2.23;2.03;;;3.60;99.90;;;;;;5031560;28;20214;-81
2021/01/28 03:38:17;;;;;;;4.03;2.40;;;3.60;99.90;;;;;;5031035;28;20225;-79
2021/01/28 03:40:43;;;;;;;4.50;2.33;;;3.60;99.90;;;;;;5029257;28;20250;-79
2021/01/28 03:43:09;;;;;;;4.00;2.67;;;3.60;99.90;;;;;;5030521;28;20187;-79
2021/01/28 03:45:35;;;;;;;3.30;2.13;;;3.60;99.90;;;;;;5029697;28;20298;-77
2021/01/28 03:48:02;;;;;;;2.53;2.00;;;3.60;99.90;;;;;;5029157;28;20525;-80
2021/01/28 03:50:30;;;;;;;4.00;2.63;;;3.60;99.90;;;;;;5029482;28;20236;-80
2021/01/28 03:52:56;;;;;;;4.83;2.97;;;3.60;99.90;;;;;;5029018;28;20438;-80
2021/01/28 03:55:22;;;;;;;3.40;2.17;;;3.60;99.90;;;;;;5029660;28;20806;-80
2021/01/28 03:57:49;;;;;;;2.63;1.87;;;3.60;99.90;;;;;;5030313;28;20218;-79
2021/01/28 04:00:19;;;;;;;2.83;2.43;;;3.60;99.90;;;;;;5045608;28;20179;-79
2021/01/28 04:02:44;;;;;;;1.63;1.53;;;3.60;99.90;;;;;;5044937;28;20205;-79
2021/01/28 04:05:11;;;;;;;3.03;1.93;;;3.60;99.90;;;;;;5029718;28;20206;-80
2021/01/28 04:07:37;;;;;;;2.30;1.97;;;3.60;99.90;;;;;;5030093;28;20178;-80
2021/01/28 04:10:05;;;;;;;3.13;2.50;;;3.60;99.90;;;;;;5030192;28;20235;-80
2021/01/28 04:12:31;;;;;;;1.80;1.67;;;3.50;99.90;;;;;;5030052;28;20183;-79
2021/01/28 04:14:57;;;;;;;2.43;1.63;;;3.60;99.90;;;;;;5029271;28;20194;-79
2021/01/28 04:17:22;;;;;;;4.63;2.10;;;3.70;99.90;;;;;;5028825;28;20652;-80
2021/01/28 04:19:48;;;;;;;2.70;2.13;;;3.60;99.90;;;;;;5029748;28;20625;-79
2021/01/28 04:22:14;;;;;;;3.30;2.07;;;3.70;99.90;;;;;;5031252;28;20189;-79
2021/01/28 04:24:42;;;;;;;3.03;2.20;;;3.60;99.90;;;;;;5030050;28;20203;-80
2021/01/28 04:27:08;;;;;;;2.53;1.83;;;3.70;99.90;;;;;;5029454;28;20194;-79
2021/01/28 04:29:34;;;;;;;2.10;1.90;;;3.60;99.90;;;;;;5029953;28;20174;-80
2021/01/28 04:32:00;;;;;;;1.90;1.50;;;3.70;99.90;;;;;;5030904;28;20237;-79
2021/01/28 04:34:26;;;;;;;2.20;1.57;;;3.70;99.90;;;;;;5029876;28;20256;-79
2021/01/28 04:36:51;;;;;;;2.83;1.93;;;3.70;99.90;;;;;;5029519;28;20183;-79
2021/01/28 04:39:18;;;;;;;2.07;1.87;;;3.60;99.90;;;;;;5027826;28;20233;-78
2021/01/28 04:41:44;;;;;;;1.50;1.40;;;3.60;99.90;;;;;;5028837;28;20175;-79
2021/01/28 04:44:11;;;;;;;3.67;2.47;;;3.60;99.90;;;;;;5030071;28;20215;-77
2021/01/28 04:46:40;;;;;;;2.50;2.23;;;3.50;99.90;;;;;;5030019;28;20182;-80
2021/01/28 04:49:09;;;;;;;2.63;2.17;;;3.50;99.90;;;;;;5028355;28;20955;-78
2021/01/28 04:51:35;;;;;;;2.17;1.90;;;3.60;99.90;;;;;;5029647;28;20190;-79
2021/01/28 04:54:18;;;;;;;2.03;1.77;;;3.60;99.90;;;;;;5028703;28;20215;-79
2021/01/28 04:56:44;;;;;;;3.23;2.10;;;3.50;99.90;;;;;;5027657;28;20205;-81
2021/01/28 04:59:20;;;;;;;3.67;2.40;;;3.50;99.90;;;;;;5028347;28;20218;-77
2021/01/28 05:01:45;;;;;;;2.83;2.33;;;3.50;99.90;;;;;;5029167;28;20186;-79
2021/01/28 05:04:14;;;;;;;3.37;2.37;;;3.50;99.90;;;;;;5028684;28;20210;-78
2021/01/28 05:06:40;;;;;;;3.43;2.10;;;3.50;99.90;;;;;;5044136;28;20230;-78
2021/01/28 05:09:06;;;;;;;4.17;2.80;;;3.40;99.90;;;;;;5030229;28;20195;-78
2021/01/28 05:11:35;;;;;;;4.53;2.20;;;3.50;99.90;;;;;;5028975;28;20193;-79
2021/01/28 05:14:21;;;;;;;3.97;2.60;;;3.50;99.90;;;;;;5029966;28;20234;-78
2021/01/28 05:16:50;;;;;;;3.17;1.83;;;3.40;99.90;;;;;;5028145;28;20262;-79
2021/01/28 05:19:53;;;;;;;3.10;2.60;;;3.50;99.90;;;;;;5029602;28;20206;-79
2021/01/28 05:22:32;;;;;;;4.23;2.30;;;3.50;99.90;;;;;;5028791;28;20178;-79
2021/01/28 05:25:09;;;;;;;2.40;2.00;;;3.40;99.90;;;;;;5027863;28;20203;-80
2021/01/28 05:27:37;;;;;;;3.33;2.53;;;3.60;99.90;;;;;;5030109;28;20605;-79
2021/01/28 05:30:12;;;;;;;4.23;3.23;;;3.60;99.90;;;;;;5028494;28;20241;-79
2021/01/28 05:32:42;;;;;;;4.30;2.90;;;3.60;99.90;;;;;;5028918;28;20187;-80
2021/01/28 05:35:13;;;;;;;3.80;2.73;;;3.70;99.90;;;;;;5030279;28;20209;-78
2021/01/28 05:37:39;;;;;;;2.73;2.00;;;3.60;99.90;;;;;;5028480;28;20194;-79
2021/01/28 05:40:23;;;;;;;2.67;1.90;;;3.60;99.90;;;;;;5029634;28;20565;-80
2021/01/28 05:42:51;;;;;;;3.80;3.03;;;3.60;99.90;;;;;;5044670;28;20202;-81
2021/01/28 05:45:27;;;;;;;3.70;2.73;;;3.60;99.90;;;;;;5027894;28;20206;-79
2021/01/28 05:47:53;;;;;;;3.07;2.77;;;3.60;99.90;;;;;;5029532;28;20190;-78
2021/01/28 05:50:31;;;;;;;4.13;2.97;;;3.60;99.90;;;;;;5029176;28;20183;-80
2021/01/28 05:53:17;;;;;;;4.03;2.87;;;3.50;99.90;;;;;;5027276;28;20245;-78
2021/01/28 05:55:43;;;;;;;2.50;1.97;;;3.40;99.90;;;;;;5029189;28;20214;-82
2021/01/28 05:58:30;;;;;;;3.83;2.77;;;3.40;99.90;;;;;;5029320;28;20726;-79
2021/01/28 06:01:33;;;;;;;3.40;2.87;;;3.60;99.90;;;;;;5027948;28;20688;-79
2021/01/28 06:04:11;;;;;;;3.30;2.33;;;3.50;99.90;;;;;;5029834;28;20202;-79
2021/01/28 06:06:50;;;;;;;2.20;1.97;;;3.50;99.90;;;;;;5027535;28;20183;-78
2021/01/28 06:09:24;;;;;;;3.30;2.30;;;3.40;99.90;;;;;;5029096;28;20183;-78
2021/01/28 06:12:01;;;;;;;5.10;3.17;;;3.40;99.90;;;;;;5029104;28;20182;-78
2021/01/28 06:14:59;;;;;;;2.73;1.93;;;3.40;99.90;;;;;;5028989;28;20680;-81
2021/01/28 06:17:42;;;;;;;3.63;1.80;;;3.40;99.90;;;;;;5029454;28;20171;-80
2021/01/28 06:20:31;;;;;;;4.00;3.03;;;3.50;99.90;;;;;;5029592;28;20248;-79
2021/01/28 06:23:22;;;;;;;3.47;2.23;;;3.40;99.90;;;;;;5027844;28;20542;-80
2021/01/28 06:26:04;;;;;;;5.50;3.27;;;3.40;99.90;;;;;;5029251;28;20672;-80
2021/01/28 06:28:39;;;;;;;3.30;2.80;;;3.60;99.90;;;;;;5027679;28;20179;-80
2021/01/28 06:31:42;;;;;;;4.23;2.70;;;3.50;99.90;;;;;;5027975;28;20193;-80
2021/01/28 06:34:21;;;;;;;3.63;2.30;;;3.50;99.90;;;;;;5030981;28;20213;-80
2021/01/28 06:37:07;;;;;;;2.70;2.33;;;3.40;99.90;;;;;;5032851;28;20182;-80
2021/01/28 06:39:35;;;;;;;3.37;2.87;;;3.50;99.90;;;;;;5032349;28;20206;-80
2021/01/28 06:42:21;;;;;;;3.83;2.83;;;3.50;99.90;;;;;;5031960;28;20345;-80
2021/01/28 06:45:02;;;;;;;3.67;2.30;;;3.40;99.90;;;;;;5031151;28;20195;-79
2021/01/28 06:47:40;;;;;;;3.43;2.83;;;3.40;99.90;;;;;;5031680;28;20206;-79
2021/01/28 06:50:06;;;;;;;3.27;2.87;;;3.40;99.90;;;;;;5030144;28;20187;-79
2021/01/28 06:52:54;;;;;;;3.70;3.00;;;3.40;99.90;;;;;;5031805;28;20235;-80
2021/01/28 06:55:42;;;;;;;2.73;2.20;;;3.40;99.90;;;;;;5023565;28;20214;-80
2021/01/28 06:58:21;;;;;;;3.97;3.17;;;3.40;99.90;;;;;;5032741;28;20203;-80
2021/01/28 07:00:57;;;;;;;4.07;2.73;;;3.50;99.90;;;;;;5030903;28;20644;-79
2021/01/28 07:03:47;;;;;;;3.27;2.37;;;3.50;99.90;;;;;;5030702;28;20253;-78
2021/01/28 07:06:39;;;;;;;2.97;2.03;;;3.40;99.90;;;;;;5030625;28;20727;-78
2021/01/28 07:09:27;;;;;;;4.73;3.17;;;3.40;99.90;;;;;;5031573;28;20198;-78
2021/01/28 07:11:58;;;;;;;4.90;2.67;;;3.30;99.90;;;;;;5019989;28;20202;-80
2021/01/28 07:14:24;;;;;;;3.20;2.23;;;3.40;99.90;;;;;;5045833;28;20207;-79
2021/01/28 07:17:10;;;;;;;3.17;1.97;;;3.50;99.90;;;;;;5030477;28;20198;-79
2021/01/28 07:19:41;;;;;;;4.00;2.03;;;3.40;99.90;;;;;;5028952;28;20228;-79
2021/01/28 07:22:34;;;;;;;2.40;2.20;;;3.30;99.90;;;;;;5028424;28;20724;-79
2021/01/28 07:25:39;;;;;;;2.83;2.57;;;3.30;99.90;;;;;;5029800;28;20195;-79
2021/01/28 07:28:25;;;;;;;2.63;1.60;;;3.30;99.90;;;;;;5031148;28;20198;-77
2021/01/28 07:30:52;;;;;;;3.33;2.30;;;3.30;99.90;;;;;;5029678;28;20289;-78
2021/01/28 07:33:41;;;;;;;2.00;1.80;;;3.30;99.90;;;;;;5031022;28;20179;-79
2021/01/28 07:36:22;;;;;;;3.67;2.30;;;3.30;99.90;;;;;;5028944;28;20277;-77
2021/01/28 07:38:52;;;;;;;3.83;2.00;;;3.30;99.90;;;;;;5029640;28;20206;-80
2021/01/28 07:41:27;;;;;;;3.73;2.70;;;3.30;99.90;;;;;;5031838;28;20167;-80
2021/01/28 07:44:11;;;;;;;2.20;2.00;;;3.40;99.90;;;;;;5030563;28;20174;-80
2021/01/28 07:46:40;;;;;;;3.37;2.27;;;3.40;99.90;;;;;;5030645;28;20171;-77
2021/01/28 07:49:20;;;;;;;2.40;2.07;;;3.40;99.90;;;;;;5028009;28;20187;-77
2021/01/28 07:51:49;;;;;;;3.60;2.33;;;3.40;99.90;;;;;;5029974;28;20237;-77
2021/01/28 07:54:24;;;;;;;3.77;2.30;;;3.40;99.90;;;;;;5027295;28;20250;-79
2021/01/28 07:57:08;;;;;;;2.63;2.37;;;3.40;99.90;;;;;;5023972;28;20190;-80
2021/01/28 07:59:52;;;;;;;3.93;2.50;;;3.40;99.90;;;;;;5029542;28;20211;-80
2021/01/28 08:02:31;;;;;;;2.27;2.07;;;3.40;99.90;;;;;;5028791;28;20656;-77
2021/01/28 08:05:03;;;;;;;3.03;2.37;;;3.40;99.90;;;;;;5028442;28;20271;-78
2021/01/28 08:07:32;;;;;;;4.63;3.20;;;3.40;99.90;;;;;;5030360;28;20183;-78
2021/01/28 08:10:01;;;;;;;3.43;2.97;;;3.40;99.90;;;;;;5030407;28;20182;-77
2021/01/28 08:12:52;;;;;;;4.03;2.63;;;3.50;99.90;;;;;;5030672;28;20187;-81
2021/01/28 08:15:21;;;;;;;3.97;2.47;;;3.50;99.90;;;;;;5030124;28;20199;-80
2021/01/28 08:18:04;;;;;;;4.73;2.73;;;3.50;99.90;;;;;;5029694;28;20567;-80
2021/01/28 08:20:32;;;;;;;3.90;3.13;;;3.60;99.90;;;;;;5028472;28;20226;-81
2021/01/28 08:23:04;;;;;;;3.00;2.20;;;3.60;99.90;;;;;;5029767;28;20175;-80
2021/01/28 08:25:37;;;;;;;2.30;1.90;;;3.50;99.90;;;;;;5029257;28;20661;-75
2021/01/28 08:28:12;;;;;;;3.20;2.87;;;3.60;99.90;;;;;;5029341;28;20190;-80
2021/01/28 08:30:42;;;;;;;4.13;2.80;;;3.60;99.90;;;;;;5043270;28;20185;-80
2021/01/28 08:33:14;;;;;;;4.13;2.67;;;3.70;99.90;;;;;;5029814;28;20187;-80
2021/01/28 08:35:47;;;;;;;3.67;2.43;;;3.70;99.90;;;;;;5029687;28;20217;-77
2021/01/28 08:38:21;;;;;;;3.87;2.90;;;3.70;99.90;;;;;;5029508;28;20207;-79
2021/01/28 08:41:07;;;;;;;3.80;2.73;;;3.80;99.90;;;;;;5028122;28;20182;-80
2021/01/28 08:43:33;;;;;;;4.20;1.83;;;3.80;99.90;;;;;;5028309;28;21146;-81
2021/01/28 08:46:21;;;;;;;3.13;2.73;;;3.80;99.90;;;;;;5026091;28;20207;-77
2021/01/28 08:48:47;;;;;;;3.80;2.50;;;3.90;99.90;;;;;;5026564;28;20719;-78
2021/01/28 08:51:16;;;;;;;4.30;2.60;;;3.90;99.90;;;;;;5027857;28;20660;-78
2021/01/28 08:53:47;;;;;;;4.40;2.60;;;4.00;99.90;;;;;;5026981;28;20801;-79
2021/01/28 08:56:19;;;;;;;4.33;2.93;;;3.90;99.90;;;;;;5025371;28;21046;-78
2021/01/28 08:58:46;;;;;;;5.00;2.60;;;3.90;99.90;;;;;;5025654;28;20214;-79
2021/01/28 09:01:14;;;;;;;4.03;3.10;;;3.90;99.90;;;;;;5026318;28;20222;-79
2021/01/28 09:04:04;;;;;;;2.90;2.57;;;4.00;99.90;;;;;;5026814;28;20253;-79
2021/01/28 09:06:42;;;;;;;3.70;3.17;;;4.00;99.90;;;;;;5023482;28;20193;-77
2021/01/28 09:09:30;;;;;;;3.90;2.10;;;4.00;99.90;;;;;;5025385;28;20191;-81
2021/01/28 09:12:21;;;;;;;3.30;2.67;;;4.00;99.90;;;;;;5024871;28;20187;-78
2021/01/28 09:14:47;;;;;;;3.70;2.60;;;4.10;99.90;;;;;;5027540;28;20266;-81
2021/01/28 09:17:30;;;;;;;3.70;3.10;;;4.10;99.90;;;;;;5027443;28;20290;-80
2021/01/28 09:19:59;;;;;;;3.03;2.37;;;4.10;99.90;;;;;;5026711;28;20210;-78
2021/01/28 09:22:30;;;;;;;4.07;2.20;;;4.10;99.90;;;;;;5027286;28;20187;-77
2021/01/28 09:24:56;;;;;;;3.63;2.83;;;4.20;99.90;;;;;;5024974;28;20210;-77
2021/01/28 09:27:21;;;;;;;5.87;4.03;;;4.20;99.90;;;;;;5024572;28;20187;-79
2021/01/28 09:29:51;;;;;;;3.63;3.17;;;4.20;99.90;;;;;;5024408;28;20195;-78
2021/01/28 09:32:17;;;;;;;3.83;3.33;;;4.20;99.90;;;;;;5041661;28;20281;-79
2021/01/28 09:34:42;;;;;;;3.60;2.30;;;4.30;99.90;;;;;;5026167;28;20660;-78
2021/01/28 09:37:18;;;;;;;4.23;2.93;;;4.30;99.90;;;;;;5027427;28;20248;-78
2021/01/28 09:39:46;;;;;;;4.47;2.90;;;4.30;99.90;;;;;;5042178;28;20320;-78
2021/01/28 09:42:19;;;;;;;5.50;3.43;;;4.40;99.90;;;;;;5027914;28;20210;-78
2021/01/28 09:44:49;;;;;;;4.97;3.13;;;4.40;99.90;;;;;;5027185;28;20214;-79
2021/01/28 09:47:30;;;;;;;5.40;3.03;;;4.40;99.90;;;;;;5028606;28;20203;-80
2021/01/28 09:50:08;;;;;;;3.53;2.83;;;4.40;99.90;;;;;;5026958;28;20194;-77
2021/01/28 09:52:37;;;;;;;4.90;3.40;;;4.50;99.90;;;;;;5027289;28;20198;-80
2021/01/28 09:55:07;;;;;;;4.53;2.93;;;4.50;99.90;;;;;;5029186;28;20213;-78
2021/01/28 09:57:33;;;;;;;6.17;3.90;;;4.50;99.90;;;;;;5028599;28;20190;-81
2021/01/28 09:59:59;;;;;;;6.30;4.17;;;4.50;99.90;;;;;;5028104;28;20233;-78
2021/01/28 10:02:38;;;;;;;5.47;3.20;;;4.40;99.90;;;;;;5027467;28;20195;-77
2021/01/28 10:05:05;;;;;;;5.03;3.07;;;4.50;99.90;;;;;;5027174;28;20266;-77
2021/01/28 10:07:30;;;;;;;5.00;3.30;;;4.60;99.90;;;;;;5028726;28;20325;-80
2021/01/28 10:09:56;;;;;;;3.53;2.70;;;4.50;99.90;;;;;;5031182;28;20261;-81
2021/01/28 10:12:25;;;;;;;4.57;3.77;;;4.50;99.90;;;;;;5032017;28;20183;-77
2021/01/28 10:14:52;;;;;;;5.77;3.07;;;4.50;99.90;;;;;;5031131;28;20225;-77
2021/01/28 10:17:17;;;;;;;6.27;3.47;;;4.50;99.90;;;;;;5031248;28;20195;-78
2021/01/28 10:19:46;;;;;;;4.67;3.07;;;4.50;99.90;;;;;;5029494;28;20222;-79
2021/01/28 10:22:14;;;;;;;6.37;3.73;;;4.50;99.90;;;;;;5029291;28;20194;-78
2021/01/28 10:24:40;;;;;;;4.13;2.97;;;4.50;99.90;;;;;;5029013;28;20587;-79
2021/01/28 10:27:06;;;;;;;3.60;2.30;;;4.40;99.90;;;;;;5030619;28;20265;-78
2021/01/28 10:29:31;;;;;;;3.57;3.17;;;4.40;99.90;;;;;;5047729;28;20187;-79
2021/01/28 10:31:57;;;;;;;4.07;2.63;;;4.40;99.90;;;;;;5031533;28;20680;-79
2021/01/28 10:34:23;;;;;;;5.77;2.87;;;4.40;99.90;;;;;;5031346;28;20570;-78
2021/01/28 10:36:48;;;;;;;4.53;3.17;;;4.40;99.90;;;;;;5031721;28;20735;-78
2021/01/28 10:39:14;;;;;;;3.97;3.17;;;4.30;99.90;;;;;;5029625;28;20253;-79
2021/01/28 10:41:40;;;;;;;6.03;3.00;;;4.30;99.90;;;;;;5031900;28;20231;-78
2021/01/28 10:44:06;;;;;;;4.07;2.93;;;4.30;99.90;;;;;;5025906;28;20242;-79
2021/01/28 10:46:31;;;;;;;3.27;2.93;;;4.20;99.90;;;;;;5030636;28;20261;-79
2021/01/28 10:48:57;;;;;;;4.57;3.43;;;4.20;99.90;;;;;;5026857;28;20187;-77
2021/01/28 10:51:23;;;;;;;3.80;2.67;;;4.30;99.90;;;;;;5024574;28;20190;-76
2021/01/28 10:53:48;;;;;;;4.33;3.13;;;4.30;99.90;;;;;;5024870;28;20182;-77
2021/01/28 10:56:14;;;;;;;3.33;2.10;;;4.30;99.90;;;;;;5027943;28;20779;-79
2021/01/28 10:58:39;;;;;;;3.77;2.77;;;4.30;99.90;;;;;;5029039;28;20241;-77
2021/01/28 11:01:05;;;;;;;8.93;5.60;;;4.30;99.90;;;;;;5028484;28;20610;-77
2021/01/28 11:03:31;;;;;;;8.23;6.37;;;4.30;99.90;;;;;;5026290;28;20198;-77
2021/01/28 11:05:58;;;;;;;4.80;3.77;;;4.40;99.90;;;;;;5026819;28;20439;-78
2021/01/28 11:08:24;;;;;;;4.33;3.30;;;4.40;99.90;;;;;;5029227;28;20187;-79
2021/01/28 11:10:49;;;;;;;3.47;2.60;;;4.50;99.90;;;;;;5029738;28;20582;-78
2021/01/28 11:13:15;;;;;;;5.53;3.80;;;4.50;99.90;;;;;;5029790;28;20605;-77
2021/01/28 11:15:41;;;;;;;5.93;4.30;;;4.50;99.90;;;;;;5028293;28;20230;-79
2021/01/28 11:18:09;;;;;;;5.13;3.30;;;4.60;99.90;;;;;;5028088;28;20218;-80
2021/01/28 11:20:35;;;;;;;5.33;3.47;;;4.50;99.90;;;;;;5028098;28;20189;-79
2021/01/28 11:23:01;;;;;;;10.30;7.07;;;4.50;99.90;;;;;;5029362;28;20186;-78
2021/01/28 11:25:28;;;;;;;6.33;4.33;;;4.50;99.90;;;;;;5028813;28;20195;-79
2021/01/28 11:27:54;;;;;;;4.83;3.33;;;4.60;99.90;;;;;;5029441;28;20183;-80
2021/01/28 11:30:23;;;;;;;8.03;5.43;;;4.60;99.90;;;;;;5044105;28;20282;-78
2021/01/28 11:32:49;;;;;;;6.83;4.53;;;4.50;99.90;;;;;;5039953;28;20197;-77
2021/01/28 11:35:19;;;;;;;9.77;4.17;;;4.60;99.90;;;;;;5028668;28;20203;-80
2021/01/28 11:37:46;;;;;;;6.40;3.50;;;4.70;99.90;;;;;;5028648;28;20177;-77
2021/01/28 11:40:18;;;;;;;6.13;3.63;;;4.70;99.90;;;;;;5026358;28;20189;-78
2021/01/28 11:42:44;;;;;;;7.60;4.77;;;4.70;99.90;;;;;;5024729;28;20186;-76
2021/01/28 11:45:11;;;;;;;5.07;3.30;;;4.60;99.90;;;;;;5024533;28;20280;-76
2021/01/28 11:47:37;;;;;;;16.60;9.93;;;4.50;99.90;;;;;;5027004;28;20183;-78
2021/01/28 11:50:05;;;;;;;12.60;6.60;;;4.50;99.90;;;;;;5027931;28;20732;-78
2021/01/28 11:52:31;;;;;;;27.47;14.63;;;4.50;99.90;;;;;;5028239;28;20205;-79
2021/01/28 11:54:57;;;;;;;17.07;11.50;;;4.50;99.90;;;;;;5027353;28;20211;-80
2021/01/28 11:57:22;;;;;;;32.37;22.67;;;4.50;99.90;;;;;;5026727;28;20183;-80
2021/01/28 11:59:48;;;;;;;44.73;31.83;;;4.50;99.90;;;;;;5028484;28;20215;-79
2021/01/28 12:02:13;;;;;;;24.43;18.10;;;4.50;99.90;;;;;;5027555;28;20202;-75
2021/01/28 12:04:39;;;;;;;10.40;8.70;;;4.40;99.90;;;;;;5025617;28;20273;-80
2021/01/28 12:07:05;;;;;;;8.40;5.97;;;4.50;99.90;;;;;;5022579;28;21026;-79
2021/01/28 12:09:30;;;;;;;10.87;7.43;;;4.50;99.90;;;;;;5026158;28;20178;-77
2021/01/28 12:11:56;;;;;;;6.97;4.27;;;4.40;99.90;;;;;;5025895;28;20236;-80
2021/01/28 12:14:21;;;;;;;6.27;2.80;;;4.30;99.90;;;;;;5025403;28;20782;-78
2021/01/28 12:16:47;;;;;;;3.00;2.20;;;4.20;99.90;;;;;;5026915;28;20269;-78
2021/01/28 12:19:13;;;;;;;2.37;2.17;;;4.20;99.90;;;;;;5025233;28;20352;-78
2021/01/28 12:21:38;;;;;;;2.67;1.80;;;4.20;99.90;;;;;;5026818;28;20179;-79
2021/01/28 12:24:04;;;;;;;11.27;7.03;;;4.20;99.90;;;;;;5024773;28;20207;-78
2021/01/28 12:26:30;;;;;;;3.10;2.43;;;4.30;99.90;;;;;;5023456;28;20214;-78
2021/01/28 12:28:55;;;;;;;3.70;2.40;;;4.20;99.90;;;;;;5026324;28;21101;-79
2021/01/28 12:31:21;;;;;;;3.63;2.53;;;4.30;99.90;;;;;;5024892;28;20641;-79
2021/01/28 12:33:47;;;;;;;7.23;3.70;;;4.20;99.90;;;;;;5024864;28;20567;-80
2021/01/28 12:36:12;;;;;;;6.13;3.13;;;4.20;99.90;;;;;;5025709;28;20289;-80
2021/01/28 12:38:39;;;;;;;4.13;3.37;;;4.20;99.90;;;;;;5026685;28;20218;-79
2021/01/28 12:41:05;;;;;;;9.20;5.00;;;4.20;99.90;;;;;;5025633;28;20179;-80
2021/01/28 12:43:31;;;;;;;18.67;7.50;;;4.20;99.90;;;;;;5025343;28;20179;-81
2021/01/28 12:45:59;;;;;;;16.43;7.27;;;4.20;99.90;;;;;;5025087;28;20203;-76
2021/01/28 12:48:26;;;;;;;22.00;12.00;;;4.20;99.90;;;;;;5027146;28;20179;-80
2021/01/28 12:50:52;;;;;;;35.80;19.00;;;4.20;99.90;;;;;;5025310;28;20278;-78
2021/01/28 12:53:17;;;;;;;39.83;18.27;;;4.20;99.90;;;;;;5025790;28;20637;-80
2021/01/28 12:55:43;;;;;;;53.90;28.03;;;4.20;99.90;;;;;;5025436;28;20758;-79
2021/01/28 12:58:10;;;;;;;38.30;20.17;;;4.20;99.90;;;;;;5027098;28;20257;-79
2021/01/28 13:00:38;;;;;;;30.20;15.83;;;4.20;99.90;;;;;;5009249;28;20261;-81
2021/01/28 13:03:04;;;;;;;40.57;20.87;;;4.20;99.90;;;;;;5024929;28;20298;-78
2021/01/28 13:05:31;;;;;;;27.60;16.23;;;4.20;99.90;;;;;;5023163;28;20308;-78
2021/01/28 13:07:56;;;;;;;20.30;10.97;;;4.10;99.90;;;;;;5024585;28;20193;-77
2021/01/28 13:10:22;;;;;;;21.60;11.23;;;4.10;99.90;;;;;;5024493;28;20187;-78
2021/01/28 13:12:48;;;;;;;17.47;8.57;;;4.10;99.90;;;;;;5021450;28;20183;-79